sensor_id;sensor_type;location;lat;lon;timestamp;temperature;humidity
55091;DHT22;40985;53.180;5.800;2023-02-01T00:00:00;5.80;99.90
55091;DHT22;40985;53.180;5.800;2023-02-01T00:02:26;5.80;99.90
55091;DHT22;40985;53.180;5.800;2023-02-01T00:04:51;5.80;99.90
55091;DHT22;40985;53.180;5.800;2023-02-01T00:07:17;5.80;99.90
55091;DHT22;40985;53.180;5.800;2023-02-01T00:09:43;5.70;99.90
55091;DHT22;40985;53.180;5.800;2023-02-01T00:12:08;5.90;99.90
55091;DHT22;40985;53.180;5.800;2023-02-01T00:14:34;5.90;99.90
55091;DHT22;40985;53.180;5.800;2023-02-01T00:17:06;5.90;99.90
55091;DHT22;40985;53.180;5.800;2023-02-01T00:19:33;5.90;99.90
55091;DHT22;40985;53.180;5.800;2023-02-01T00:21:59;5.90;99.90
55091;DHT22;40985;53.180;5.800;2023-02-01T00:24:25;5.80;99.90
55091;DHT22;40985;53.180;5.800;2023-02-01T00:26:51;5.90;99.90
55091;DHT22;40985;53.180;5.800;2023-02-01T00:29:18;6.00;99.90
55091;DHT22;40985;53.180;5.800;2023-02-01T00:31:45;6.00;99.90
55091;DHT22;40985;53.180;5.800;2023-02-01T00:34:15;6.00;99.90
55091;DHT22;40985;53.180;5.800;2023-02-01T00:36:42;6.10;99.90
55091;DHT22;40985;53.180;5.800;2023-02-01T00:39:08;6.10;99.90
55091;DHT22;40985;53.180;5.800;2023-02-01T00:41:35;6.00;99.90
55091;DHT22;40985;53.180;5.800;2023-02-01T00:44:01;6.00;99.90
55091;DHT22;40985;53.180;5.800;2023-02-01T00:46:27;6.10;99.90
55091;DHT22;40985;53.180;5.800;2023-02-01T00:48:53;6.00;99.90
55091;DHT22;40985;53.180;5.800;2023-02-01T00:51:21;6.10;99.90
55091;DHT22;40985;53.180;5.800;2023-02-01T00:53:47;6.10;99.90
55091;DHT22;40985;53.180;5.800;2023-02-01T00:56:13;6.00;99.90
55091;DHT22;40985;53.180;5.800;2023-02-01T00:58:39;6.10;99.90
55091;DHT22;40985;53.180;5.800;2023-02-01T01:01:08;6.10;99.90
55091;DHT22;40985;53.180;5.800;2023-02-01T01:03:36;6.10;99.90
55091;DHT22;40985;53.180;5.800;2023-02-01T01:06:08;6.20;99.90
55091;DHT22;40985;53.180;5.800;2023-02-01T01:08:35;6.20;99.90
55091;DHT22;40985;53.180;5.800;2023-02-01T01:11:07;6.20;99.90
55091;DHT22;40985;53.180;5.800;2023-02-01T01:13:34;6.20;99.90
55091;DHT22;40985;53.180;5.800;2023-02-01T01:16:01;6.20;99.90
55091;DHT22;40985;53.180;5.800;2023-02-01T01:18:28;6.20;99.90
55091;DHT22;40985;53.180;5.800;2023-02-01T01:20:54;6.20;99.90
55091;DHT22;40985;53.180;5.800;2023-02-01T01:23:20;6.20;99.90
55091;DHT22;40985;53.180;5.800;2023-02-01T01:25:46;6.20;99.90
55091;DHT22;40985;53.180;5.800;2023-02-01T01:28:12;6.10;99.90
55091;DHT22;40985;53.180;5.800;2023-02-01T01:30:37;6.00;99.90
55091;DHT22;40985;53.180;5.800;2023-02-01T01:33:03;6.00;99.90
55091;DHT22;40985;53.180;5.800;2023-02-01T01:35:30;6.00;99.90
55091;DHT22;40985;53.180;5.800;2023-02-01T01:37:58;5.90;99.90
55091;DHT22;40985;53.180;5.800;2023-02-01T01:40:25;5.90;99.90
55091;DHT22;40985;53.180;5.800;2023-02-01T01:42:51;5.90;99.90
55091;DHT22;40985;53.180;5.800;2023-02-01T01:45:26;5.90;99.90
55091;DHT22;40985;53.180;5.800;2023-02-01T01:47:54;5.90;99.90
55091;DHT22;40985;53.180;5.800;2023-02-01T01:50:28;5.90;99.90
55091;DHT22;40985;53.180;5.800;2023-02-01T01:52:56;5.90;99.90
55091;DHT22;40985;53.180;5.800;2023-02-01T01:55:25;5.90;99.90
55091;DHT22;40985;53.180;5.800;2023-02-01T01:58:00;5.90;99.90
55091;DHT22;40985;53.180;5.800;2023-02-01T02:00:27;5.80;99.90
55091;DHT22;40985;53.180;5.800;2023-02-01T02:02:58;5.80;99.90
55091;DHT22;40985;53.180;5.800;2023-02-01T02:05:24;5.80;99.90
55091;DHT22;40985;53.180;5.800;2023-02-01T02:07:52;5.90;99.90
55091;DHT22;40985;53.180;5.800;2023-02-01T02:10:19;5.90;99.90
55091;DHT22;40985;53.180;5.800;2023-02-01T02:12:47;5.90;99.90
55091;DHT22;40985;53.180;5.800;2023-02-01T02:15:14;5.90;99.90
55091;DHT22;40985;53.180;5.800;2023-02-01T02:17:50;5.90;99.90
55091;DHT22;40985;53.180;5.800;2023-02-01T02:20:31;6.00;99.90
55091;DHT22;40985;53.180;5.800;2023-02-01T02:31:54;5.90;99.90
55091;DHT22;40985;53.180;5.800;2023-02-01T02:34:31;5.90;99.90
55091;DHT22;40985;53.180;5.800;2023-02-01T02:48:30;5.90;99.90
55091;DHT22;40985;53.180;5.800;2023-02-01T02:54:07;5.90;99.90
55091;DHT22;40985;53.180;5.800;2023-02-01T02:56:53;5.90;99.90
55091;DHT22;40985;53.180;5.800;2023-02-01T02:59:43;5.90;99.90
55091;DHT22;40985;53.180;5.800;2023-02-01T03:02:28;5.90;99.90
55091;DHT22;40985;53.180;5.800;2023-02-01T03:05:12;5.90;99.90
55091;DHT22;40985;53.180;5.800;2023-02-01T03:13:36;6.00;99.90
55091;DHT22;40985;53.180;5.800;2023-02-01T03:16:26;6.00;99.90
55091;DHT22;40985;53.180;5.800;2023-02-01T03:19:19;6.00;99.90
55091;DHT22;40985;53.180;5.800;2023-02-01T03:22:07;6.10;99.90
55091;DHT22;40985;53.180;5.800;2023-02-01T03:24:49;6.10;99.90
55091;DHT22;40985;53.180;5.800;2023-02-01T03:27:18;6.10;99.90
55091;DHT22;40985;53.180;5.800;2023-02-01T03:32:15;6.10;99.90
55091;DHT22;40985;53.180;5.800;2023-02-01T03:34:41;6.20;99.90
55091;DHT22;40985;53.180;5.800;2023-02-01T03:37:12;6.20;99.90
55091;DHT22;40985;53.180;5.800;2023-02-01T03:40:18;6.20;99.90
55091;DHT22;40985;53.180;5.800;2023-02-01T03:42:54;6.20;99.90
55091;DHT22;40985;53.180;5.800;2023-02-01T03:45:24;6.20;99.90
55091;DHT22;40985;53.180;5.800;2023-02-01T03:47:54;6.10;99.90
55091;DHT22;40985;53.180;5.800;2023-02-01T03:50:22;6.20;99.90
55091;DHT22;40985;53.180;5.800;2023-02-01T03:53:11;6.10;99.90
55091;DHT22;40985;53.180;5.800;2023-02-01T03:55:41;6.20;99.90
55091;DHT22;40985;53.180;5.800;2023-02-01T04:00:44;6.20;99.90
55091;DHT22;40985;53.180;5.800;2023-02-01T04:03:11;6.20;99.90
55091;DHT22;40985;53.180;5.800;2023-02-01T04:05:37;6.10;99.90
55091;DHT22;40985;53.180;5.800;2023-02-01T04:08:02;6.00;99.90
55091;DHT22;40985;53.180;5.800;2023-02-01T04:10:30;6.00;99.90
55091;DHT22;40985;53.180;5.800;2023-02-01T04:12:56;6.00;99.90
55091;DHT22;40985;53.180;5.800;2023-02-01T04:15:21;5.90;99.90
55091;DHT22;40985;53.180;5.800;2023-02-01T04:17:47;6.00;99.90
55091;DHT22;40985;53.180;5.800;2023-02-01T04:20:13;6.00;99.90
55091;DHT22;40985;53.180;5.800;2023-02-01T04:22:38;5.90;99.90
55091;DHT22;40985;53.180;5.800;2023-02-01T04:25:06;5.90;99.90
55091;DHT22;40985;53.180;5.800;2023-02-01T04:27:31;5.80;99.90
55091;DHT22;40985;53.180;5.800;2023-02-01T04:29:57;5.90;99.90
55091;DHT22;40985;53.180;5.800;2023-02-01T04:32:23;5.80;99.90
55091;DHT22;40985;53.180;5.800;2023-02-01T04:34:48;5.70;99.90
55091;DHT22;40985;53.180;5.800;2023-02-01T04:37:14;5.70;99.90
55091;DHT22;40985;53.180;5.800;2023-02-01T04:39:40;5.70;99.90
55091;DHT22;40985;53.180;5.800;2023-02-01T04:42:05;5.60;99.90
55091;DHT22;40985;53.180;5.800;2023-02-01T04:44:31;5.60;99.90
55091;DHT22;40985;53.180;5.800;2023-02-01T04:46:57;5.70;99.90
55091;DHT22;40985;53.180;5.800;2023-02-01T04:49:22;5.80;99.90
55091;DHT22;40985;53.180;5.800;2023-02-01T04:51:48;5.90;99.90
55091;DHT22;40985;53.180;5.800;2023-02-01T04:54:14;5.90;99.90
55091;DHT22;40985;53.180;5.800;2023-02-01T04:56:39;6.00;99.90
55091;DHT22;40985;53.180;5.800;2023-02-01T04:59:05;6.00;99.90
55091;DHT22;40985;53.180;5.800;2023-02-01T05:01:31;6.00;99.90
55091;DHT22;40985;53.180;5.800;2023-02-01T05:03:57;6.00;99.90
55091;DHT22;40985;53.180;5.800;2023-02-01T05:06:23;6.00;99.90
55091;DHT22;40985;53.180;5.800;2023-02-01T05:08:48;6.10;99.90
55091;DHT22;40985;53.180;5.800;2023-02-01T05:11:14;6.10;99.90
55091;DHT22;40985;53.180;5.800;2023-02-01T05:13:59;6.10;99.90
55091;DHT22;40985;53.180;5.800;2023-02-01T05:16:25;6.00;99.90
55091;DHT22;40985;53.180;5.800;2023-02-01T05:18:51;6.00;99.90
55091;DHT22;40985;53.180;5.800;2023-02-01T05:21:17;6.00;99.90
55091;DHT22;40985;53.180;5.800;2023-02-01T05:23:43;6.00;99.90
55091;DHT22;40985;53.180;5.800;2023-02-01T05:26:27;6.00;99.90
55091;DHT22;40985;53.180;5.800;2023-02-01T05:28:53;6.00;99.90
55091;DHT22;40985;53.180;5.800;2023-02-01T05:31:19;6.10;99.90
55091;DHT22;40985;53.180;5.800;2023-02-01T05:33:44;6.00;99.90
55091;DHT22;40985;53.180;5.800;2023-02-01T05:36:10;5.90;99.90
55091;DHT22;40985;53.180;5.800;2023-02-01T05:38:36;5.90;99.90
55091;DHT22;40985;53.180;5.800;2023-02-01T05:41:02;5.90;99.90
55091;DHT22;40985;53.180;5.800;2023-02-01T05:43:27;6.00;99.90
55091;DHT22;40985;53.180;5.800;2023-02-01T05:45:53;6.00;99.90
55091;DHT22;40985;53.180;5.800;2023-02-01T05:48:19;6.00;99.90
55091;DHT22;40985;53.180;5.800;2023-02-01T05:50:45;5.90;99.90
55091;DHT22;40985;53.180;5.800;2023-02-01T05:53:10;5.80;99.90
55091;DHT22;40985;53.180;5.800;2023-02-01T05:55:37;5.90;99.90
55091;DHT22;40985;53.180;5.800;2023-02-01T05:58:04;5.80;99.90
55091;DHT22;40985;53.180;5.800;2023-02-01T06:00:30;5.70;99.90
55091;DHT22;40985;53.180;5.800;2023-02-01T06:02:55;5.80;99.90
55091;DHT22;40985;53.180;5.800;2023-02-01T06:05:21;5.80;99.90
55091;DHT22;40985;53.180;5.800;2023-02-01T06:07:48;5.80;99.90
55091;DHT22;40985;53.180;5.800;2023-02-01T06:10:16;5.70;99.90
55091;DHT22;40985;53.180;5.800;2023-02-01T06:12:42;5.70;99.90
55091;DHT22;40985;53.180;5.800;2023-02-01T06:15:08;5.70;99.90
55091;DHT22;40985;53.180;5.800;2023-02-01T06:17:34;5.80;99.90
55091;DHT22;40985;53.180;5.800;2023-02-01T06:20:00;5.80;99.90
55091;DHT22;40985;53.180;5.800;2023-02-01T06:22:25;5.80;99.90
55091;DHT22;40985;53.180;5.800;2023-02-01T06:24:51;5.80;99.90
55091;DHT22;40985;53.180;5.800;2023-02-01T06:27:16;5.80;99.90
55091;DHT22;40985;53.180;5.800;2023-02-01T06:29:42;5.80;99.90
55091;DHT22;40985;53.180;5.800;2023-02-01T06:32:08;5.80;99.90
55091;DHT22;40985;53.180;5.800;2023-02-01T06:34:34;5.90;99.90
55091;DHT22;40985;53.180;5.800;2023-02-01T06:37:00;5.90;99.90
55091;DHT22;40985;53.180;5.800;2023-02-01T06:39:25;5.90;99.90
55091;DHT22;40985;53.180;5.800;2023-02-01T06:41:53;5.90;99.90
55091;DHT22;40985;53.180;5.800;2023-02-01T06:44:18;5.90;99.90
55091;DHT22;40985;53.180;5.800;2023-02-01T06:46:44;5.80;99.90
55091;DHT22;40985;53.180;5.800;2023-02-01T06:49:10;5.80;99.90
55091;DHT22;40985;53.180;5.800;2023-02-01T06:51:35;5.80;99.90
55091;DHT22;40985;53.180;5.800;2023-02-01T06:54:01;5.70;99.90
55091;DHT22;40985;53.180;5.800;2023-02-01T06:56:27;5.70;99.90
55091;DHT22;40985;53.180;5.800;2023-02-01T06:58:53;5.60;99.90
55091;DHT22;40985;53.180;5.800;2023-02-01T07:01:19;5.70;99.90
55091;DHT22;40985;53.180;5.800;2023-02-01T07:03:49;5.70;99.90
55091;DHT22;40985;53.180;5.800;2023-02-01T07:06:16;5.70;99.90
55091;DHT22;40985;53.180;5.800;2023-02-01T07:08:42;5.60;99.90
55091;DHT22;40985;53.180;5.800;2023-02-01T07:11:13;5.70;99.90
55091;DHT22;40985;53.180;5.800;2023-02-01T07:13:39;5.50;99.90
55091;DHT22;40985;53.180;5.800;2023-02-01T07:16:08;5.60;99.90
55091;DHT22;40985;53.180;5.800;2023-02-01T07:18:34;5.60;99.90
55091;DHT22;40985;53.180;5.800;2023-02-01T07:21:00;5.60;99.90
55091;DHT22;40985;53.180;5.800;2023-02-01T07:23:26;5.60;99.90
55091;DHT22;40985;53.180;5.800;2023-02-01T07:25:56;5.70;99.90
55091;DHT22;40985;53.180;5.800;2023-02-01T07:28:22;5.60;99.90
55091;DHT22;40985;53.180;5.800;2023-02-01T07:30:48;5.70;99.90
55091;DHT22;40985;53.180;5.800;2023-02-01T07:33:23;5.80;99.90
55091;DHT22;40985;53.180;5.800;2023-02-01T07:35:50;5.70;99.90
55091;DHT22;40985;53.180;5.800;2023-02-01T07:38:16;5.90;99.90
55091;DHT22;40985;53.180;5.800;2023-02-01T07:40:42;5.80;99.90
55091;DHT22;40985;53.180;5.800;2023-02-01T07:43:09;5.80;99.90
55091;DHT22;40985;53.180;5.800;2023-02-01T07:45:35;5.80;99.90
55091;DHT22;40985;53.180;5.800;2023-02-01T07:48:02;5.80;99.90
55091;DHT22;40985;53.180;5.800;2023-02-01T07:50:28;5.90;99.90
55091;DHT22;40985;53.180;5.800;2023-02-01T07:52:54;5.80;99.90
55091;DHT22;40985;53.180;5.800;2023-02-01T07:55:20;5.80;99.90
55091;DHT22;40985;53.180;5.800;2023-02-01T07:57:46;5.80;99.90
55091;DHT22;40985;53.180;5.800;2023-02-01T08:00:12;5.80;99.90
55091;DHT22;40985;53.180;5.800;2023-02-01T08:03:00;5.80;99.90
55091;DHT22;40985;53.180;5.800;2023-02-01T08:05:27;5.90;99.90
55091;DHT22;40985;53.180;5.800;2023-02-01T08:07:52;5.90;99.90
55091;DHT22;40985;53.180;5.800;2023-02-01T08:10:19;5.90;99.90
55091;DHT22;40985;53.180;5.800;2023-02-01T08:12:45;5.90;99.90
55091;DHT22;40985;53.180;5.800;2023-02-01T08:15:17;5.90;99.90
55091;DHT22;40985;53.180;5.800;2023-02-01T08:17:47;5.90;99.90
55091;DHT22;40985;53.180;5.800;2023-02-01T08:20:13;5.80;99.90
55091;DHT22;40985;53.180;5.800;2023-02-01T08:22:39;5.90;99.90
55091;DHT22;40985;53.180;5.800;2023-02-01T08:25:05;5.90;99.90
55091;DHT22;40985;53.180;5.800;2023-02-01T08:27:34;5.90;99.90
55091;DHT22;40985;53.180;5.800;2023-02-01T08:30:00;5.90;99.90
55091;DHT22;40985;53.180;5.800;2023-02-01T08:32:26;5.90;99.90
55091;DHT22;40985;53.180;5.800;2023-02-01T08:34:53;6.00;99.90
55091;DHT22;40985;53.180;5.800;2023-02-01T08:37:19;6.00;99.90
55091;DHT22;40985;53.180;5.800;2023-02-01T08:39:45;6.00;99.90
55091;DHT22;40985;53.180;5.800;2023-02-01T08:42:12;6.00;99.90
55091;DHT22;40985;53.180;5.800;2023-02-01T08:44:56;6.00;99.90
55091;DHT22;40985;53.180;5.800;2023-02-01T08:47:22;6.00;99.90
55091;DHT22;40985;53.180;5.800;2023-02-01T08:49:48;6.00;99.90
55091;DHT22;40985;53.180;5.800;2023-02-01T08:52:14;6.00;99.90
55091;DHT22;40985;53.180;5.800;2023-02-01T08:54:40;6.00;99.90
55091;DHT22;40985;53.180;5.800;2023-02-01T08:57:07;6.00;99.90
55091;DHT22;40985;53.180;5.800;2023-02-01T08:59:33;6.00;99.90
55091;DHT22;40985;53.180;5.800;2023-02-01T09:01:58;6.00;99.90
55091;DHT22;40985;53.180;5.800;2023-02-01T09:04:24;5.90;99.90
55091;DHT22;40985;53.180;5.800;2023-02-01T09:06:50;6.00;99.90
55091;DHT22;40985;53.180;5.800;2023-02-01T09:09:15;5.90;99.90
55091;DHT22;40985;53.180;5.800;2023-02-01T09:11:41;6.00;99.90
55091;DHT22;40985;53.180;5.800;2023-02-01T09:14:07;6.00;99.90
55091;DHT22;40985;53.180;5.800;2023-02-01T09:16:32;6.00;99.90
55091;DHT22;40985;53.180;5.800;2023-02-01T09:18:58;6.00;99.90
55091;DHT22;40985;53.180;5.800;2023-02-01T09:21:24;6.00;99.90
55091;DHT22;40985;53.180;5.800;2023-02-01T09:23:52;6.00;99.90
55091;DHT22;40985;53.180;5.800;2023-02-01T09:26:18;6.10;99.90
55091;DHT22;40985;53.180;5.800;2023-02-01T09:28:43;6.00;99.90
55091;DHT22;40985;53.180;5.800;2023-02-01T09:31:09;6.10;99.90
55091;DHT22;40985;53.180;5.800;2023-02-01T09:33:35;6.00;99.90
55091;DHT22;40985;53.180;5.800;2023-02-01T09:36:03;6.00;99.90
55091;DHT22;40985;53.180;5.800;2023-02-01T09:38:30;6.00;99.90
55091;DHT22;40985;53.180;5.800;2023-02-01T09:40:57;6.00;99.90
55091;DHT22;40985;53.180;5.800;2023-02-01T09:43:34;6.00;99.90
55091;DHT22;40985;53.180;5.800;2023-02-01T09:46:26;5.90;99.90
55091;DHT22;40985;53.180;5.800;2023-02-01T09:48:55;6.00;99.90
55091;DHT22;40985;53.180;5.800;2023-02-01T09:51:30;6.00;99.90
55091;DHT22;40985;53.180;5.800;2023-02-01T09:54:16;6.00;99.90
55091;DHT22;40985;53.180;5.800;2023-02-01T09:56:51;6.10;99.90
55091;DHT22;40985;53.180;5.800;2023-02-01T09:59:39;6.00;99.90
55091;DHT22;40985;53.180;5.800;2023-02-01T10:02:18;6.00;99.90
55091;DHT22;40985;53.180;5.800;2023-02-01T10:04:44;6.20;99.90
55091;DHT22;40985;53.180;5.800;2023-02-01T10:13:13;6.30;99.90
55091;DHT22;40985;53.180;5.800;2023-02-01T10:18:42;6.50;99.90
55091;DHT22;40985;53.180;5.800;2023-02-01T10:21:50;6.60;99.90
55091;DHT22;40985;53.180;5.800;2023-02-01T10:24:37;6.70;99.90
55091;DHT22;40985;53.180;5.800;2023-02-01T10:27:13;6.70;99.90
55091;DHT22;40985;53.180;5.800;2023-02-01T10:29:43;6.70;99.90
55091;DHT22;40985;53.180;5.800;2023-02-01T10:32:21;6.80;99.90
55091;DHT22;40985;53.180;5.800;2023-02-01T10:35:21;6.80;99.90
55091;DHT22;40985;53.180;5.800;2023-02-01T10:37:44;6.80;99.90
55091;DHT22;40985;53.180;5.800;2023-02-01T10:40:21;6.80;99.90
55091;DHT22;40985;53.180;5.800;2023-02-01T10:42:49;6.80;99.90
55091;DHT22;40985;53.180;5.800;2023-02-01T10:45:20;6.80;99.90
55091;DHT22;40985;53.180;5.800;2023-02-01T10:47:49;6.80;99.90
55091;DHT22;40985;53.180;5.800;2023-02-01T10:50:23;6.90;99.90
55091;DHT22;40985;53.180;5.800;2023-02-01T10:53:31;6.90;99.90
55091;DHT22;40985;53.180;5.800;2023-02-01T10:56:07;7.00;99.90
55091;DHT22;40985;53.180;5.800;2023-02-01T10:58:33;7.00;99.90
55091;DHT22;40985;53.180;5.800;2023-02-01T11:01:06;7.00;99.90
55091;DHT22;40985;53.180;5.800;2023-02-01T11:08:50;6.90;99.90
55091;DHT22;40985;53.180;5.800;2023-02-01T11:11:16;6.90;99.90
55091;DHT22;40985;53.180;5.800;2023-02-01T11:13:42;6.90;99.90
55091;DHT22;40985;53.180;5.800;2023-02-01T11:16:12;7.00;99.90
55091;DHT22;40985;53.180;5.800;2023-02-01T11:18:38;7.00;99.90
55091;DHT22;40985;53.180;5.800;2023-02-01T11:21:06;7.00;99.90
55091;DHT22;40985;53.180;5.800;2023-02-01T11:23:33;6.90;99.90
55091;DHT22;40985;53.180;5.800;2023-02-01T11:28:40;6.90;99.90
55091;DHT22;40985;53.180;5.800;2023-02-01T11:31:12;6.90;99.90
55091;DHT22;40985;53.180;5.800;2023-02-01T11:33:48;6.90;99.90
55091;DHT22;40985;53.180;5.800;2023-02-01T11:36:18;7.00;99.90
55091;DHT22;40985;53.180;5.800;2023-02-01T11:39:14;7.00;99.90
55091;DHT22;40985;53.180;5.800;2023-02-01T11:46:54;7.20;99.90
55091;DHT22;40985;53.180;5.800;2023-02-01T11:52:10;7.20;99.90
55091;DHT22;40985;53.180;5.800;2023-02-01T12:09:25;7.30;99.90
55091;DHT22;40985;53.180;5.800;2023-02-01T12:17:17;7.30;99.90
55091;DHT22;40985;53.180;5.800;2023-02-01T12:44:52;7.40;99.90
55091;DHT22;40985;53.180;5.800;2023-02-01T12:47:39;7.50;99.90
55091;DHT22;40985;53.180;5.800;2023-02-01T12:50:18;7.40;99.90
55091;DHT22;40985;53.180;5.800;2023-02-01T12:52:51;7.30;99.90
55091;DHT22;40985;53.180;5.800;2023-02-01T12:55:44;7.20;99.90
55091;DHT22;40985;53.180;5.800;2023-02-01T12:58:15;7.10;99.90
55091;DHT22;40985;53.180;5.800;2023-02-01T13:00:46;7.10;99.90
55091;DHT22;40985;53.180;5.800;2023-02-01T13:03:37;7.10;99.90
55091;DHT22;40985;53.180;5.800;2023-02-01T13:06:15;7.10;99.90
55091;DHT22;40985;53.180;5.800;2023-02-01T13:14:06;7.10;99.90
55091;DHT22;40985;53.180;5.800;2023-02-01T13:16:40;7.20;99.90
55091;DHT22;40985;53.180;5.800;2023-02-01T13:19:28;7.20;99.90
55091;DHT22;40985;53.180;5.800;2023-02-01T13:22:10;7.20;99.90
55091;DHT22;40985;53.180;5.800;2023-02-01T13:24:44;7.30;99.90
55091;DHT22;40985;53.180;5.800;2023-02-01T13:27:13;7.30;99.90
55091;DHT22;40985;53.180;5.800;2023-02-01T13:29:52;7.40;99.90
55091;DHT22;40985;53.180;5.800;2023-02-01T13:32:26;7.30;99.90
55091;DHT22;40985;53.180;5.800;2023-02-01T13:35:15;7.40;99.90
55091;DHT22;40985;53.180;5.800;2023-02-01T13:40:44;7.40;99.90
55091;DHT22;40985;53.180;5.800;2023-02-01T13:43:22;7.50;99.90
55091;DHT22;40985;53.180;5.800;2023-02-01T13:45:52;7.50;99.90
55091;DHT22;40985;53.180;5.800;2023-02-01T13:48:33;7.50;99.90
55091;DHT22;40985;53.180;5.800;2023-02-01T13:51:01;7.40;99.90
55091;DHT22;40985;53.180;5.800;2023-02-01T13:53:35;7.30;99.90
55091;DHT22;40985;53.180;5.800;2023-02-01T13:56:19;7.40;99.90
55091;DHT22;40985;53.180;5.800;2023-02-01T13:58:47;7.30;99.90
55091;DHT22;40985;53.180;5.800;2023-02-01T14:03:59;7.40;99.90
55091;DHT22;40985;53.180;5.800;2023-02-01T14:11:51;7.50;99.90
55091;DHT22;40985;53.180;5.800;2023-02-01T14:16:43;7.60;99.90
55091;DHT22;40985;53.180;5.800;2023-02-01T14:19:24;7.60;99.90
55091;DHT22;40985;53.180;5.800;2023-02-01T14:21:55;7.50;99.90
55091;DHT22;40985;53.180;5.800;2023-02-01T14:24:31;7.40;99.90
55091;DHT22;40985;53.180;5.800;2023-02-01T14:29:39;7.50;99.90
55091;DHT22;40985;53.180;5.800;2023-02-01T14:40:06;7.60;99.90
55091;DHT22;40985;53.180;5.800;2023-02-01T14:47:55;7.50;99.90
55091;DHT22;40985;53.180;5.800;2023-02-01T14:50:46;7.50;99.90
55091;DHT22;40985;53.180;5.800;2023-02-01T14:56:16;7.60;99.90
55091;DHT22;40985;53.180;5.800;2023-02-01T15:03:53;7.50;99.90
55091;DHT22;40985;53.180;5.800;2023-02-01T15:06:27;7.40;99.90
55091;DHT22;40985;53.180;5.800;2023-02-01T15:09:02;7.40;99.90
55091;DHT22;40985;53.180;5.800;2023-02-01T15:11:28;7.30;99.90
55091;DHT22;40985;53.180;5.800;2023-02-01T15:13:54;7.30;99.90
55091;DHT22;40985;53.180;5.800;2023-02-01T15:16:24;7.30;99.90
55091;DHT22;40985;53.180;5.800;2023-02-01T15:18:50;7.20;99.90
55091;DHT22;40985;53.180;5.800;2023-02-01T15:21:21;7.10;99.90
55091;DHT22;40985;53.180;5.800;2023-02-01T15:23:48;7.00;99.90
55091;DHT22;40985;53.180;5.800;2023-02-01T15:26:31;7.00;99.90
55091;DHT22;40985;53.180;5.800;2023-02-01T15:28:58;7.10;99.90
55091;DHT22;40985;53.180;5.800;2023-02-01T15:31:34;7.10;99.90
55091;DHT22;40985;53.180;5.800;2023-02-01T15:34:00;7.10;99.90
55091;DHT22;40985;53.180;5.800;2023-02-01T15:36:26;7.10;99.90
55091;DHT22;40985;53.180;5.800;2023-02-01T15:41:48;7.00;99.90
55091;DHT22;40985;53.180;5.800;2023-02-01T15:44:26;7.00;99.90
55091;DHT22;40985;53.180;5.800;2023-02-01T15:46:53;7.00;99.90
55091;DHT22;40985;53.180;5.800;2023-02-01T15:49:36;6.90;99.90
55091;DHT22;40985;53.180;5.800;2023-02-01T15:52:08;6.90;99.90
55091;DHT22;40985;53.180;5.800;2023-02-01T15:54:43;6.80;99.90
55091;DHT22;40985;53.180;5.800;2023-02-01T15:57:11;6.80;99.90
55091;DHT22;40985;53.180;5.800;2023-02-01T15:59:44;6.80;99.90
55091;DHT22;40985;53.180;5.800;2023-02-01T16:02:36;6.80;99.90
55091;DHT22;40985;53.180;5.800;2023-02-01T16:05:05;6.80;99.90
55091;DHT22;40985;53.180;5.800;2023-02-01T16:07:33;6.80;99.90
55091;DHT22;40985;53.180;5.800;2023-02-01T16:10:01;6.80;99.90
55091;DHT22;40985;53.180;5.800;2023-02-01T16:15:04;6.80;99.90
55091;DHT22;40985;53.180;5.800;2023-02-01T16:17:30;6.80;99.90
55091;DHT22;40985;53.180;5.800;2023-02-01T16:19:56;6.70;99.90
55091;DHT22;40985;53.180;5.800;2023-02-01T16:22:23;6.70;99.90
55091;DHT22;40985;53.180;5.800;2023-02-01T16:24:49;6.70;99.90
55091;DHT22;40985;53.180;5.800;2023-02-01T16:27:14;6.70;99.90
55091;DHT22;40985;53.180;5.800;2023-02-01T16:29:40;6.70;99.90
55091;DHT22;40985;53.180;5.800;2023-02-01T16:32:08;6.70;99.90
55091;DHT22;40985;53.180;5.800;2023-02-01T16:34:36;6.60;99.90
55091;DHT22;40985;53.180;5.800;2023-02-01T16:37:03;6.60;99.90
55091;DHT22;40985;53.180;5.800;2023-02-01T16:39:28;6.60;99.90
55091;DHT22;40985;53.180;5.800;2023-02-01T16:41:55;6.50;99.90
55091;DHT22;40985;53.180;5.800;2023-02-01T16:44:21;6.50;99.90
55091;DHT22;40985;53.180;5.800;2023-02-01T16:46:47;6.40;99.90
55091;DHT22;40985;53.180;5.800;2023-02-01T16:49:22;6.40;99.90
55091;DHT22;40985;53.180;5.800;2023-02-01T16:51:49;6.40;99.90
55091;DHT22;40985;53.180;5.800;2023-02-01T16:54:16;6.40;99.90
55091;DHT22;40985;53.180;5.800;2023-02-01T16:56:42;6.40;99.90
55091;DHT22;40985;53.180;5.800;2023-02-01T16:59:09;6.40;99.90
55091;DHT22;40985;53.180;5.800;2023-02-01T17:01:54;6.30;99.90
55091;DHT22;40985;53.180;5.800;2023-02-01T17:04:20;6.20;99.90
55091;DHT22;40985;53.180;5.800;2023-02-01T17:06:46;6.20;99.90
55091;DHT22;40985;53.180;5.800;2023-02-01T17:09:14;6.30;99.90
55091;DHT22;40985;53.180;5.800;2023-02-01T17:11:40;6.30;99.90
55091;DHT22;40985;53.180;5.800;2023-02-01T17:14:16;6.30;99.90
55091;DHT22;40985;53.180;5.800;2023-02-01T17:16:43;6.30;99.90
55091;DHT22;40985;53.180;5.800;2023-02-01T17:19:13;6.30;99.90
55091;DHT22;40985;53.180;5.800;2023-02-01T17:21:57;6.30;99.90
55091;DHT22;40985;53.180;5.800;2023-02-01T17:24:29;6.30;99.90
55091;DHT22;40985;53.180;5.800;2023-02-01T17:26:55;6.40;99.90
55091;DHT22;40985;53.180;5.800;2023-02-01T17:29:21;6.50;99.90
55091;DHT22;40985;53.180;5.800;2023-02-01T17:31:51;6.50;99.90
55091;DHT22;40985;53.180;5.800;2023-02-01T17:34:17;6.50;99.90
55091;DHT22;40985;53.180;5.800;2023-02-01T17:36:44;6.40;99.90
55091;DHT22;40985;53.180;5.800;2023-02-01T17:39:11;6.40;99.90
55091;DHT22;40985;53.180;5.800;2023-02-01T17:41:57;6.40;99.90
55091;DHT22;40985;53.180;5.800;2023-02-01T17:44:23;6.50;99.90
55091;DHT22;40985;53.180;5.800;2023-02-01T17:46:48;6.40;99.90
55091;DHT22;40985;53.180;5.800;2023-02-01T17:49:14;6.30;99.90
55091;DHT22;40985;53.180;5.800;2023-02-01T17:51:40;6.30;99.90
55091;DHT22;40985;53.180;5.800;2023-02-01T17:54:11;6.20;99.90
55091;DHT22;40985;53.180;5.800;2023-02-01T17:56:37;6.30;99.90
55091;DHT22;40985;53.180;5.800;2023-02-01T17:59:03;6.20;99.90
55091;DHT22;40985;53.180;5.800;2023-02-01T18:01:29;6.10;99.90
55091;DHT22;40985;53.180;5.800;2023-02-01T18:03:54;6.10;99.90
55091;DHT22;40985;53.180;5.800;2023-02-01T18:06:24;6.10;99.90
55091;DHT22;40985;53.180;5.800;2023-02-01T18:08:53;6.20;99.90
55091;DHT22;40985;53.180;5.800;2023-02-01T18:11:21;6.20;99.90
55091;DHT22;40985;53.180;5.800;2023-02-01T18:13:48;6.10;99.90
55091;DHT22;40985;53.180;5.800;2023-02-01T18:18:46;6.10;99.90
55091;DHT22;40985;53.180;5.800;2023-02-01T18:21:13;6.10;99.90
55091;DHT22;40985;53.180;5.800;2023-02-01T18:23:39;6.10;99.90
55091;DHT22;40985;53.180;5.800;2023-02-01T18:26:07;6.10;99.90
55091;DHT22;40985;53.180;5.800;2023-02-01T18:28:34;6.10;99.90
55091;DHT22;40985;53.180;5.800;2023-02-01T18:30:59;6.00;99.90
55091;DHT22;40985;53.180;5.800;2023-02-01T18:33:27;6.10;99.90
55091;DHT22;40985;53.180;5.800;2023-02-01T18:35:53;6.00;99.90